Time;durP1;ratioP1;P1;durP2;ratioP2;P2;SDS_P1;SDS_P2;PMS_P1;PMS_P2;Temp;Humidity;BMP_temperature;BMP_pressure;BME280_temperature;BME280_humidity;BME280_pressure;Samples;Min_cycle;Max_cycle;Signal;HPM_P1;HPM_P2
2023/08/18 00:00:33;;;;;;;9.77;7.17;;;16.00;99.90;;;;;;2072991;28;20229;-83
2023/08/18 00:01:34;;;;;;;7.97;6.00;;;15.90;99.90;;;;;;2056582;28;20237;-84
2023/08/18 00:02:35;;;;;;;7.03;5.93;;;15.90;99.90;;;;;;2056729;28;20289;-84
2023/08/18 00:03:36;;;;;;;9.05;6.07;;;15.90;99.90;;;;;;2069822;28;20217;-84
2023/08/18 00:04:36;;;;;;;9.50;6.77;;;16.00;99.90;;;;;;2072101;28;20252;-83
2023/08/18 00:05:37;;;;;;;7.40;6.60;;;15.80;99.90;;;;;;2064912;28;20271;-83
2023/08/18 00:06:38;;;;;;;8.93;6.43;;;15.90;99.90;;;;;;2064983;28;20222;-84
2023/08/18 00:07:40;;;;;;;7.30;5.60;;;15.80;99.90;;;;;;2056655;28;20234;-84
2023/08/18 00:08:42;;;;;;;6.57;5.47;;;15.80;99.90;;;;;;2061414;28;20228;-84
2023/08/18 00:09:45;;;;;;;8.60;5.97;;;15.90;99.90;;;;;;2069162;28;20459;-83
2023/08/18 00:10:46;;;;;;;8.00;5.90;;;15.90;99.90;;;;;;2064532;28;20460;-84
2023/08/18 00:11:47;;;;;;;11.10;5.83;;;15.90;99.90;;;;;;2065308;28;20218;-83
2023/08/18 00:12:47;;;;;;;7.20;6.40;;;15.90;99.90;;;;;;2073005;28;21233;-84
2023/08/18 00:13:48;;;;;;;8.73;5.57;;;15.80;99.90;;;;;;2064379;28;20263;-84
2023/08/18 00:14:51;;;;;;;6.77;5.57;;;15.90;99.90;;;;;;2061001;28;20257;-84
2023/08/18 00:15:52;;;;;;;7.68;5.65;;;15.80;99.90;;;;;;2069057;28;20305;-84
2023/08/18 00:16:53;;;;;;;7.70;5.90;;;15.90;99.90;;;;;;2068254;28;20214;-84
2023/08/18 00:17:53;;;;;;;7.63;6.47;;;15.80;99.90;;;;;;2068748;28;20222;-84
2023/08/18 00:18:54;;;;;;;8.03;6.30;;;15.70;99.90;;;;;;2071654;28;20266;-83
2023/08/18 00:19:55;;;;;;;10.83;6.37;;;15.60;99.90;;;;;;2073013;28;20749;-83
2023/08/18 00:20:55;;;;;;;8.33;6.17;;;15.60;99.90;;;;;;2064360;28;20292;-84
2023/08/18 00:21:56;;;;;;;7.70;6.40;;;15.70;99.90;;;;;;2064313;28;20254;-83
2023/08/18 00:22:57;;;;;;;10.27;6.30;;;15.70;99.90;;;;;;2056482;28;20302;-84
2023/08/18 00:23:57;;;;;;;9.17;6.57;;;15.70;99.90;;;;;;2064401;28;20218;-84
2023/08/18 00:24:58;;;;;;;5.87;5.23;;;15.70;99.90;;;;;;2080847;28;20235;-84
2023/08/18 00:25:59;;;;;;;7.53;5.10;;;15.60;99.90;;;;;;2063950;28;20360;-83
2023/08/18 00:27:00;;;;;;;8.40;6.07;;;15.80;99.90;;;;;;2056056;28;20227;-84
2023/08/18 00:28:00;;;;;;;6.67;5.47;;;15.70;99.90;;;;;;2056514;28;20236;-84
2023/08/18 00:29:01;;;;;;;8.10;5.20;;;15.70;99.90;;;;;;2054813;28;21052;-83
2023/08/18 00:30:02;;;;;;;6.00;5.40;;;15.70;99.90;;;;;;2060328;28;20171;-84
2023/08/18 00:31:02;;;;;;;6.53;5.60;;;15.60;99.90;;;;;;2072648;28;20188;-83
2023/08/18 00:32:03;;;;;;;10.00;6.07;;;15.70;99.90;;;;;;2071720;28;20213;-83
2023/08/18 00:33:04;;;;;;;8.70;6.07;;;15.60;99.90;;;;;;2064310;28;20187;-83
2023/08/18 00:34:05;;;;;;;5.43;4.80;;;15.60;99.90;;;;;;2075799;28;20192;-83
2023/08/18 00:35:06;;;;;;;6.43;5.27;;;15.60;99.90;;;;;;2087669;28;20209;-83
2023/08/18 00:36:07;;;;;;;7.05;5.20;;;15.60;99.90;;;;;;2080273;28;20217;-84
2023/08/18 00:37:08;;;;;;;8.43;5.88;;;15.50;99.90;;;;;;2072415;28;20193;-84
2023/08/18 00:38:09;;;;;;;8.77;6.33;;;15.50;99.90;;;;;;2072241;28;20182;-83
2023/08/18 00:39:09;;;;;;;8.37;5.87;;;15.70;99.90;;;;;;2064017;28;20186;-84
2023/08/18 00:40:11;;;;;;;7.07;5.07;;;15.60;99.90;;;;;;2063775;28;20182;-83
2023/08/18 00:41:12;;;;;;;6.15;5.10;;;15.50;99.90;;;;;;2072999;28;20244;-83
2023/08/18 00:42:13;;;;;;;9.25;6.28;;;15.50;99.90;;;;;;2071217;28;20268;-83
2023/08/18 00:43:13;;;;;;;7.93;5.67;;;15.50;99.90;;;;;;2063152;28;20187;-84
2023/08/18 00:44:14;;;;;;;5.60;5.07;;;15.50;99.90;;;;;;2054837;28;20186;-84
2023/08/18 00:45:15;;;;;;;8.10;5.33;;;15.50;99.90;;;;;;2054831;28;20183;-83
2023/08/18 00:46:18;;;;;;;6.57;5.13;;;15.50;99.90;;;;;;2061085;28;20236;-83
2023/08/18 00:47:19;;;;;;;9.52;5.30;;;15.60;99.90;;;;;;2070877;28;20178;-83
2023/08/18 00:48:21;;;;;;;9.20;6.17;;;15.60;99.90;;;;;;2063364;28;20257;-83
2023/08/18 00:49:22;;;;;;;9.02;6.68;;;15.50;99.90;;;;;;2062552;28;20231;-84
2023/08/18 00:50:24;;;;;;;5.93;5.20;;;15.50;99.90;;;;;;2055182;28;20254;-83
2023/08/18 00:51:24;;;;;;;7.68;5.55;;;15.50;99.90;;;;;;2056260;28;20468;-82
2023/08/18 00:52:26;;;;;;;6.20;5.60;;;15.50;99.90;;;;;;2072981;28;20253;-84
2023/08/18 00:53:28;;;;;;;6.67;5.57;;;15.40;99.90;;;;;;2073099;28;20230;-83
2023/08/18 00:54:30;;;;;;;6.20;5.28;;;15.40;99.90;;;;;;2050749;28;20497;-83
2023/08/18 00:55:31;;;;;;;7.33;5.70;;;15.30;99.90;;;;;;2059585;28;20227;-83
2023/08/18 00:56:32;;;;;;;8.33;5.83;;;15.40;99.90;;;;;;2073306;28;20505;-84
2023/08/18 00:57:34;;;;;;;9.52;6.70;;;15.40;99.90;;;;;;2066234;28;20237;-83
2023/08/18 00:58:36;;;;;;;11.13;6.38;;;15.40;99.90;;;;;;2064959;28;20249;-84
2023/08/18 00:59:37;;;;;;;6.93;6.07;;;15.40;99.90;;;;;;2064833;28;20236;-83
2023/08/18 01:00:38;;;;;;;7.87;6.67;;;15.50;99.90;;;;;;2055686;28;20306;-84
2023/08/18 01:01:41;;;;;;;9.40;6.47;;;15.50;99.90;;;;;;2060168;28;21032;-84
2023/08/18 01:02:44;;;;;;;7.47;6.10;;;15.50;99.90;;;;;;2060730;28;20241;-84
2023/08/18 01:03:44;;;;;;;8.95;5.43;;;15.50;99.90;;;;;;2065119;28;20245;-83
2023/08/18 01:04:46;;;;;;;7.53;5.37;;;15.50;99.90;;;;;;2064221;28;20218;-84
2023/08/18 01:05:46;;;;;;;6.90;5.70;;;15.50;99.90;;;;;;2072908;28;20214;-84
2023/08/18 01:06:47;;;;;;;6.43;5.77;;;15.50;99.90;;;;;;2063858;28;20375;-84
2023/08/18 01:07:48;;;;;;;8.40;5.47;;;15.40;99.90;;;;;;2064325;28;20221;-83
2023/08/18 01:08:50;;;;;;;12.20;5.80;;;15.50;99.90;;;;;;2064124;28;20642;-85
2023/08/18 01:09:51;;;;;;;7.43;6.00;;;15.50;99.90;;;;;;2044837;28;20212;-84
2023/08/18 01:11:33;;;;;;;6.17;5.57;;;15.50;99.90;;;;;;2055498;28;20225;-84
2023/08/18 01:13:21;;;;;;;10.13;5.25;;;15.40;99.90;;;;;;2065131;28;20299;-83
2023/08/18 01:15:05;;;;;;;7.30;6.15;;;15.40;99.90;;;;;;2066946;28;20240;-84
2023/08/18 01:16:12;;;;;;;7.35;5.78;;;15.40;99.90;;;;;;2070150;28;20781;-83
2023/08/18 01:17:22;;;;;;;8.10;5.82;;;15.40;99.90;;;;;;2072907;28;20185;-84
2023/08/18 01:18:24;;;;;;;8.90;5.47;;;15.30;99.90;;;;;;2078227;28;20260;-85
2023/08/18 01:19:26;;;;;;;7.65;5.82;;;15.40;99.90;;;;;;2065409;28;20234;-84
2023/08/18 01:20:30;;;;;;;7.95;5.20;;;15.40;99.90;;;;;;2064128;28;20260;-84
2023/08/18 01:21:31;;;;;;;6.25;5.45;;;15.30;99.90;;;;;;2064105;28;20244;-84
2023/08/18 01:22:34;;;;;;;7.33;6.13;;;15.30;99.90;;;;;;2067916;28;20233;-84
2023/08/18 01:23:41;;;;;;;9.05;5.78;;;15.30;99.90;;;;;;2070120;28;20721;-84
2023/08/18 01:24:42;;;;;;;8.38;6.07;;;15.30;99.90;;;;;;2066224;28;20222;-84
2023/08/18 01:25:42;;;;;;;9.63;6.70;;;15.20;99.90;;;;;;2065011;28;20222;-83
2023/08/18 01:26:43;;;;;;;5.90;5.30;;;15.30;99.90;;;;;;2058608;28;20312;-84
2023/08/18 01:27:44;;;;;;;8.70;6.20;;;15.20;99.90;;;;;;2066121;28;20222;-84
2023/08/18 01:28:45;;;;;;;7.97;6.53;;;15.20;99.90;;;;;;2066039;28;20218;-83
2023/08/18 01:29:45;;;;;;;8.37;6.93;;;15.20;99.90;;;;;;2070313;28;20230;-84
2023/08/18 01:30:50;;;;;;;9.33;6.70;;;15.20;99.90;;;;;;2069310;28;20857;-84
2023/08/18 01:31:57;;;;;;;10.13;6.50;;;15.10;99.90;;;;;;2058264;28;20218;-84
2023/08/18 01:33:09;;;;;;;8.25;6.43;;;15.20;99.90;;;;;;2058987;28;20234;-83
2023/08/18 01:34:15;;;;;;;7.10;5.82;;;15.20;99.90;;;;;;2064718;28;20225;-83
2023/08/18 01:35:17;;;;;;;6.72;5.70;;;15.20;99.90;;;;;;2061793;28;20210;-83
2023/08/18 01:36:21;;;;;;;8.05;6.18;;;15.20;99.90;;;;;;2064665;28;20207;-84
2023/08/18 01:37:23;;;;;;;9.48;6.40;;;15.10;99.90;;;;;;2059880;28;20702;-83
2023/08/18 01:38:26;;;;;;;8.32;6.28;;;15.10;99.90;;;;;;2058598;28;20231;-83
2023/08/18 01:39:28;;;;;;;9.48;6.95;;;15.10;99.90;;;;;;2072691;28;20249;-84
2023/08/18 01:40:30;;;;;;;7.10;6.03;;;15.20;99.90;;;;;;2063617;28;20712;-83
2023/08/18 01:41:32;;;;;;;7.95;6.45;;;15.20;99.90;;;;;;2067620;28;20306;-83
2023/08/18 01:42:34;;;;;;;10.35;6.03;;;15.10;99.90;;;;;;2078969;28;20289;-84
2023/08/18 01:43:35;;;;;;;8.10;7.05;;;15.20;99.90;;;;;;2070071;28;20279;-83
2023/08/18 01:44:35;;;;;;;9.90;6.50;;;15.10;99.90;;;;;;2069022;28;20235;-83
2023/08/18 01:45:36;;;;;;;8.03;6.37;;;15.10;99.90;;;;;;2070491;28;20277;-83
2023/08/18 01:46:37;;;;;;;6.82;6.00;;;15.10;99.90;;;;;;2078116;28;20237;-83
2023/08/18 01:47:38;;;;;;;9.47;6.90;;;15.10;99.90;;;;;;2074207;28;20362;-84
2023/08/18 01:48:39;;;;;;;8.27;5.43;;;15.20;99.90;;;;;;2066151;28;20233;-84
2023/08/18 01:49:39;;;;;;;9.03;5.50;;;15.20;99.90;;;;;;2057650;28;20234;-83
2023/08/18 01:50:40;;;;;;;9.30;5.23;;;15.20;99.90;;;;;;2064123;28;20258;-83
2023/08/18 01:51:41;;;;;;;8.47;6.03;;;15.10;99.90;;;;;;2057639;28;20225;-84
2023/08/18 01:52:41;;;;;;;6.90;5.03;;;15.10;99.90;;;;;;2061773;28;20226;-84
2023/08/18 01:53:42;;;;;;;5.83;4.90;;;15.10;99.90;;;;;;2070636;28;20257;-84
2023/08/18 01:54:43;;;;;;;7.67;5.23;;;15.10;99.90;;;;;;2072268;28;20224;-84
2023/08/18 01:55:43;;;;;;;6.20;5.60;;;15.10;99.90;;;;;;2071530;28;20225;-84
2023/08/18 01:56:44;;;;;;;9.73;4.90;;;15.10;99.90;;;;;;2074190;28;20765;-84
2023/08/18 01:57:45;;;;;;;8.50;5.67;;;15.10;99.90;;;;;;2069850;28;20228;-84
2023/08/18 01:58:45;;;;;;;6.03;5.23;;;15.10;99.90;;;;;;2069856;28;20686;-82
2023/08/18 01:59:46;;;;;;;7.03;6.00;;;15.00;99.90;;;;;;2065756;28;20221;-82
2023/08/18 02:00:47;;;;;;;5.70;4.80;;;15.00;99.90;;;;;;2057809;28;20226;-82
2023/08/18 02:01:47;;;;;;;6.73;5.13;;;15.10;99.90;;;;;;2064307;28;20221;-83
2023/08/18 02:02:48;;;;;;;6.97;5.77;;;15.00;99.90;;;;;;2064469;28;20222;-83
2023/08/18 02:03:49;;;;;;;9.60;5.27;;;15.10;99.90;;;;;;2068044;28;20259;-83
2023/08/18 02:04:49;;;;;;;6.67;5.40;;;15.10;99.90;;;;;;2068980;28;20263;-83
2023/08/18 02:05:56;;;;;;;8.00;5.53;;;15.10;99.90;;;;;;2071389;28;20232;-83
2023/08/18 02:06:57;;;;;;;7.45;5.72;;;15.10;99.90;;;;;;2060692;28;20237;-82
2023/08/18 02:07:58;;;;;;;7.97;5.73;;;15.00;99.90;;;;;;2064029;28;20260;-83
2023/08/18 02:08:58;;;;;;;8.53;5.70;;;15.00;99.90;;;;;;2071590;28;20220;-84
2023/08/18 02:09:59;;;;;;;7.10;5.00;;;15.00;99.90;;;;;;2061544;28;20229;-83
2023/08/18 02:11:04;;;;;;;6.77;5.63;;;15.00;99.90;;;;;;2064642;28;20283;-84
2023/08/18 02:12:06;;;;;;;7.60;5.50;;;15.10;99.90;;;;;;2063629;28;20224;-83
2023/08/18 02:13:06;;;;;;;10.55;5.50;;;15.10;99.90;;;;;;2073446;28;20173;-84
2023/08/18 02:14:07;;;;;;;8.10;5.40;;;15.00;99.90;;;;;;2063953;28;20241;-83
2023/08/18 02:15:08;;;;;;;6.03;5.40;;;15.10;99.90;;;;;;2061460;28;20190;-82
2023/08/18 02:16:09;;;;;;;8.32;5.30;;;15.00;99.90;;;;;;2063495;28;20683;-83
2023/08/18 02:17:10;;;;;;;11.87;5.43;;;15.00;99.90;;;;;;2060435;28;20191;-84
2023/08/18 02:18:10;;;;;;;6.37;5.10;;;15.10;99.90;;;;;;2064519;28;20198;-83
2023/08/18 02:19:11;;;;;;;8.30;4.73;;;15.10;99.90;;;;;;2068381;28;20182;-83
2023/08/18 02:20:12;;;;;;;5.60;5.03;;;15.10;99.90;;;;;;2055325;28;20199;-84
2023/08/18 02:21:14;;;;;;;5.83;4.83;;;15.00;99.90;;;;;;2055661;28;20199;-82
2023/08/18 02:22:14;;;;;;;7.57;5.20;;;15.00;99.90;;;;;;2063384;28;20184;-83
2023/08/18 02:23:17;;;;;;;7.97;5.07;;;15.10;99.90;;;;;;2080456;28;20180;-84
2023/08/18 02:24:18;;;;;;;7.95;5.30;;;15.00;99.90;;;;;;2077761;28;20216;-84
2023/08/18 02:25:21;;;;;;;7.20;5.83;;;15.00;99.90;;;;;;2073386;28;20225;-83
2023/08/18 02:26:21;;;;;;;8.63;5.25;;;15.00;99.90;;;;;;2070095;28;20321;-84
2023/08/18 02:27:22;;;;;;;7.03;4.80;;;15.00;99.90;;;;;;2072505;28;20225;-83
2023/08/18 02:28:23;;;;;;;5.53;4.63;;;15.00;99.90;;;;;;2062039;28;20722;-83
2023/08/18 02:29:23;;;;;;;6.90;5.30;;;15.00;99.90;;;;;;2068767;28;20291;-84
2023/08/18 02:30:24;;;;;;;7.27;4.90;;;15.00;99.90;;;;;;2069247;28;20245;-84
2023/08/18 02:31:25;;;;;;;8.88;5.50;;;15.00;99.90;;;;;;2081400;28;20231;-84
2023/08/18 02:32:26;;;;;;;5.77;5.03;;;15.00;99.90;;;;;;2080056;28;20229;-83
2023/08/18 02:33:28;;;;;;;7.78;5.85;;;15.00;99.90;;;;;;2078009;28;20271;-83
2023/08/18 02:34:29;;;;;;;7.30;5.43;;;14.90;99.90;;;;;;2077166;28;20237;-84
2023/08/18 02:35:30;;;;;;;5.43;4.57;;;15.00;99.90;;;;;;2073578;28;20658;-84
2023/08/18 02:36:30;;;;;;;7.43;4.80;;;15.00;99.90;;;;;;2072951;28;20257;-84
2023/08/18 02:37:31;;;;;;;7.73;5.03;;;14.90;99.90;;;;;;2071305;28;20233;-84
2023/08/18 02:38:34;;;;;;;4.87;4.30;;;14.90;99.90;;;;;;2065504;28;20260;-84
2023/08/18 02:39:34;;;;;;;5.25;4.28;;;14.90;99.90;;;;;;2065958;28;20222;-85
2023/08/18 02:40:35;;;;;;;5.57;4.53;;;14.90;99.90;;;;;;2065412;28;20230;-84
2023/08/18 02:41:36;;;;;;;7.27;4.90;;;14.90;99.90;;;;;;2062288;28;20612;-85
2023/08/18 02:42:36;;;;;;;8.73;5.43;;;14.90;99.90;;;;;;2062956;28;20339;-84
2023/08/18 02:43:38;;;;;;;7.83;5.63;;;14.80;99.90;;;;;;2070177;28;20308;-84
2023/08/18 02:44:39;;;;;;;7.78;5.60;;;14.90;99.90;;;;;;2068753;28;20316;-85
2023/08/18 02:45:40;;;;;;;5.50;4.47;;;14.90;99.90;;;;;;2058713;28;20231;-84
2023/08/18 02:46:40;;;;;;;6.80;4.77;;;14.90;99.90;;;;;;2056742;28;20218;-85
2023/08/18 02:47:41;;;;;;;6.20;4.53;;;14.90;99.90;;;;;;2064847;28;20218;-85
2023/08/18 02:48:42;;;;;;;6.93;5.00;;;14.90;99.90;;;;;;2077459;28;20224;-84
2023/08/18 02:49:42;;;;;;;5.53;4.77;;;14.80;99.90;;;;;;2073235;28;20617;-85
2023/08/18 02:50:43;;;;;;;8.53;5.77;;;14.90;99.90;;;;;;2070481;28;20721;-83
2023/08/18 02:51:44;;;;;;;7.80;5.23;;;14.80;99.90;;;;;;2078261;28;20297;-85
2023/08/18 02:52:44;;;;;;;5.80;5.10;;;14.80;99.90;;;;;;2073090;28;20256;-84
2023/08/18 02:53:48;;;;;;;6.47;5.40;;;14.70;99.90;;;;;;2065682;28;20236;-85
2023/08/18 02:54:49;;;;;;;8.23;5.70;;;14.70;99.90;;;;;;2069617;28;20244;-84
2023/08/18 02:55:50;;;;;;;7.23;5.07;;;14.70;99.90;;;;;;2069130;28;20225;-84
2023/08/18 02:56:51;;;;;;;5.90;5.28;;;14.70;99.90;;;;;;2073005;28;20244;-84
2023/08/18 02:57:51;;;;;;;8.53;5.40;;;14.70;99.90;;;;;;2063725;28;20228;-84
2023/08/18 02:58:53;;;;;;;5.93;5.13;;;14.70;99.90;;;;;;2065829;28;20289;-84
2023/08/18 02:59:54;;;;;;;5.97;4.85;;;14.70;99.90;;;;;;2072777;28;20698;-84
2023/08/18 03:00:56;;;;;;;6.30;5.13;;;14.70;99.90;;;;;;2056274;28;20231;-84
2023/08/18 03:01:56;;;;;;;10.52;5.80;;;14.80;99.90;;;;;;2064209;28;20233;-84
2023/08/18 03:02:58;;;;;;;7.00;4.77;;;14.70;99.90;;;;;;2065729;28;20226;-83
2023/08/18 03:03:59;;;;;;;6.30;4.47;;;14.80;99.90;;;;;;2063913;28;20254;-85
2023/08/18 03:05:00;;;;;;;7.07;4.90;;;14.70;99.90;;;;;;2069456;28;20225;-84
2023/08/18 03:06:07;;;;;;;5.87;4.53;;;14.60;99.90;;;;;;2070953;28;20221;-84
2023/08/18 03:07:08;;;;;;;5.07;4.57;;;14.70;99.90;;;;;;2066993;28;20773;-85
2023/08/18 03:08:10;;;;;;;6.80;4.90;;;14.60;99.90;;;;;;2070843;28;20222;-84
2023/08/18 03:09:11;;;;;;;6.25;4.93;;;14.60;99.90;;;;;;2061437;28;20190;-84
2023/08/18 03:10:12;;;;;;;7.47;5.33;;;14.70;99.90;;;;;;2056513;28;20190;-84
2023/08/18 03:11:12;;;;;;;6.60;4.60;;;14.70;99.90;;;;;;2064804;28;20276;-84
2023/08/18 03:12:13;;;;;;;5.97;4.87;;;14.60;99.90;;;;;;2060823;28;20186;-84
2023/08/18 03:13:14;;;;;;;4.73;4.30;;;14.60;99.90;;;;;;2055873;28;20191;-85
2023/08/18 03:14:14;;;;;;;9.07;4.70;;;14.60;99.90;;;;;;2055772;28;20198;-83
2023/08/18 03:15:15;;;;;;;7.23;4.40;;;14.60;99.90;;;;;;2054940;28;20203;-83
2023/08/18 03:16:20;;;;;;;6.07;4.03;;;14.60;99.90;;;;;;2056278;28;20215;-82
2023/08/18 03:17:21;;;;;;;8.27;5.03;;;14.60;99.90;;;;;;2064188;28;20312;-84
2023/08/18 03:18:21;;;;;;;7.50;4.63;;;14.60;99.90;;;;;;2056838;28;20242;-85
2023/08/18 03:19:23;;;;;;;7.97;5.33;;;14.60;99.90;;;;;;2057900;28;20314;-84
2023/08/18 03:20:24;;;;;;;8.60;4.65;;;14.60;99.90;;;;;;2065260;28;20242;-85
2023/08/18 03:21:25;;;;;;;7.03;4.73;;;14.60;99.90;;;;;;2056354;28;20242;-84
2023/08/18 03:22:27;;;;;;;4.70;4.20;;;14.50;99.90;;;;;;2057709;28;20236;-83
2023/08/18 03:23:29;;;;;;;5.85;4.72;;;14.50;99.90;;;;;;2067724;28;20269;-83
2023/08/18 03:24:29;;;;;;;9.23;4.10;;;14.50;99.90;;;;;;2066651;28;20238;-84
2023/08/18 03:25:30;;;;;;;5.87;4.77;;;14.40;99.90;;;;;;2068230;28;20320;-84
2023/08/18 03:26:31;;;;;;;7.20;4.40;;;14.40;99.90;;;;;;2074379;28;20799;-84
2023/08/18 03:27:32;;;;;;;5.03;4.20;;;14.40;99.90;;;;;;2071914;28;20240;-84
2023/08/18 03:28:35;;;;;;;10.23;5.60;;;14.40;99.90;;;;;;2072351;28;20316;-85
2023/08/18 03:29:36;;;;;;;6.35;4.28;;;14.40;99.90;;;;;;2069673;28;20225;-84
2023/08/18 03:30:38;;;;;;;5.50;4.43;;;14.50;99.90;;;;;;2064136;28;20237;-84
2023/08/18 03:31:39;;;;;;;5.28;4.57;;;14.40;99.90;;;;;;2070362;28;20582;-84
2023/08/18 03:32:39;;;;;;;8.00;4.47;;;14.40;99.90;;;;;;2070049;28;20233;-84
2023/08/18 03:33:40;;;;;;;4.77;3.80;;;14.50;99.90;;;;;;2069641;28;20606;-84
2023/08/18 03:34:41;;;;;;;5.77;4.70;;;14.40;99.90;;;;;;2061488;28;20221;-84
2023/08/18 03:35:41;;;;;;;6.40;4.30;;;14.40;99.90;;;;;;2068865;28;20221;-84
2023/08/18 03:36:43;;;;;;;5.00;4.17;;;14.40;99.90;;;;;;2068725;28;20225;-84
2023/08/18 03:37:44;;;;;;;7.75;3.88;;;14.40;99.90;;;;;;2068070;28;20217;-83
2023/08/18 03:38:44;;;;;;;4.73;3.80;;;14.40;99.90;;;;;;2068679;28;20364;-84
2023/08/18 03:39:45;;;;;;;6.33;4.30;;;14.30;99.90;;;;;;2067281;28;20697;-83
2023/08/18 03:40:46;;;;;;;4.83;3.90;;;14.20;99.90;;;;;;2059269;28;20301;-82
2023/08/18 03:41:46;;;;;;;5.67;4.20;;;14.30;99.90;;;;;;2058217;28;20238;-84
2023/08/18 03:42:47;;;;;;;5.00;4.17;;;14.10;99.90;;;;;;2071435;28;20656;-84
2023/08/18 03:43:48;;;;;;;6.23;5.00;;;14.10;99.90;;;;;;2076582;28;20232;-83
2023/08/18 03:44:49;;;;;;;6.43;5.00;;;14.10;99.90;;;;;;2075796;28;20221;-83
2023/08/18 03:45:49;;;;;;;6.30;4.77;;;14.10;99.90;;;;;;2079678;28;20617;-85
2023/08/18 03:46:50;;;;;;;5.17;4.67;;;14.10;99.90;;;;;;2077387;28;20212;-83
2023/08/18 03:47:51;;;;;;;5.23;4.40;;;14.20;99.90;;;;;;2076139;28;20240;-85
2023/08/18 03:48:52;;;;;;;4.97;4.32;;;14.20;99.90;;;;;;2064012;28;20218;-85
2023/08/18 03:49:52;;;;;;;6.07;4.17;;;14.20;99.90;;;;;;2058428;28;20225;-84
2023/08/18 03:50:53;;;;;;;5.33;4.43;;;14.10;99.90;;;;;;2063723;28;20229;-84
2023/08/18 03:51:54;;;;;;;6.60;5.60;;;14.20;99.90;;;;;;2055862;28;20219;-84
2023/08/18 03:52:55;;;;;;;6.07;4.80;;;14.30;99.90;;;;;;2051508;28;20636;-84
2023/08/18 03:53:56;;;;;;;6.22;4.40;;;14.20;99.90;;;;;;2063317;28;20758;-84
2023/08/18 03:54:56;;;;;;;6.07;4.27;;;14.30;99.90;;;;;;2056207;28;20288;-85
2023/08/18 03:55:59;;;;;;;6.43;4.70;;;14.30;99.90;;;;;;2055007;28;20715;-84
2023/08/18 03:57:00;;;;;;;7.65;4.20;;;14.30;99.90;;;;;;2062634;28;20217;-86
2023/08/18 03:58:00;;;;;;;6.13;3.90;;;14.40;99.90;;;;;;2067557;28;20242;-84
2023/08/18 03:59:01;;;;;;;5.30;4.53;;;14.30;99.90;;;;;;2074585;28;20220;-84
2023/08/18 04:00:03;;;;;;;5.87;5.17;;;14.30;99.90;;;;;;2063595;28;20667;-84
2023/08/18 04:01:08;;;;;;;5.10;4.28;;;14.30;99.90;;;;;;2064093;28;20285;-84
2023/08/18 04:02:09;;;;;;;7.47;5.38;;;14.30;99.90;;;;;;2069079;28;20569;-84
2023/08/18 04:03:10;;;;;;;5.33;4.20;;;14.30;99.90;;;;;;2058428;28;20214;-84
2023/08/18 04:04:10;;;;;;;5.50;4.23;;;14.30;99.90;;;;;;2060488;28;20640;-84
2023/08/18 04:05:12;;;;;;;4.90;4.20;;;14.30;99.90;;;;;;2058941;28;20222;-84
2023/08/18 04:06:12;;;;;;;7.93;5.10;;;14.30;99.90;;;;;;2063805;28;20211;-83
2023/08/18 04:07:13;;;;;;;8.40;4.67;;;14.30;99.90;;;;;;2063856;28;20254;-84
2023/08/18 04:08:15;;;;;;;5.10;3.87;;;14.30;99.90;;;;;;2056075;28;20190;-84
2023/08/18 04:09:16;;;;;;;6.57;5.38;;;14.40;99.90;;;;;;2054359;28;20706;-84
2023/08/18 04:10:17;;;;;;;4.30;3.90;;;14.30;99.90;;;;;;2071914;28;20221;-83
2023/08/18 04:11:17;;;;;;;7.57;4.20;;;14.30;99.90;;;;;;2078237;28;20637;-83
2023/08/18 04:12:18;;;;;;;4.60;4.20;;;14.30;99.90;;;;;;2071380;28;20188;-85
2023/08/18 04:13:19;;;;;;;13.30;4.83;;;14.30;99.90;;;;;;2071960;28;20201;-84
2023/08/18 04:14:20;;;;;;;5.13;3.87;;;14.30;99.90;;;;;;2079539;28;20279;-84
2023/08/18 04:15:20;;;;;;;4.20;3.80;;;14.30;99.90;;;;;;2079965;28;20279;-84
2023/08/18 04:16:21;;;;;;;4.23;3.70;;;14.20;99.90;;;;;;2071928;28;20295;-84
2023/08/18 04:17:22;;;;;;;4.93;4.43;;;14.10;99.90;;;;;;2059997;28;20238;-85
2023/08/18 04:18:23;;;;;;;5.40;4.90;;;14.10;99.90;;;;;;2058990;28;20776;-84
2023/08/18 04:19:24;;;;;;;5.13;4.35;;;14.00;99.90;;;;;;2064296;28;20623;-83
2023/08/18 04:20:24;;;;;;;7.17;4.90;;;14.00;99.90;;;;;;2059208;28;20235;-84
2023/08/18 04:21:25;;;;;;;6.03;4.30;;;14.00;99.90;;;;;;2055159;28;20278;-84
2023/08/18 04:22:26;;;;;;;6.63;4.33;;;14.00;99.90;;;;;;2061716;28;20742;-84
2023/08/18 04:23:28;;;;;;;8.60;4.67;;;14.00;99.90;;;;;;2060677;28;20362;-84
2023/08/18 04:24:29;;;;;;;5.78;4.32;;;14.00;99.90;;;;;;2061775;28;20242;-85
2023/08/18 04:25:30;;;;;;;4.90;4.40;;;14.00;99.90;;;;;;2063483;28;20252;-84
2023/08/18 04:26:30;;;;;;;5.77;4.67;;;14.10;99.90;;;;;;2054804;28;20283;-84
2023/08/18 04:27:31;;;;;;;5.50;4.23;;;14.20;99.90;;;;;;2054746;28;20243;-85
2023/08/18 04:28:32;;;;;;;5.43;4.37;;;14.10;99.90;;;;;;2055295;28;20268;-84
2023/08/18 04:29:33;;;;;;;5.50;4.37;;;14.20;99.90;;;;;;2065209;28;20292;-83
2023/08/18 04:30:33;;;;;;;4.67;4.27;;;14.10;99.90;;;;;;2070559;28;20297;-83
2023/08/18 04:31:34;;;;;;;5.40;4.33;;;14.20;99.90;;;;;;2072374;28;20217;-83
2023/08/18 04:32:36;;;;;;;6.70;3.70;;;14.20;99.90;;;;;;2068270;28;20244;-84
2023/08/18 04:33:36;;;;;;;6.82;3.95;;;14.20;99.90;;;;;;2074504;28;20713;-84
2023/08/18 04:34:37;;;;;;;6.27;4.13;;;14.20;99.90;;;;;;2066321;28;20241;-83
2023/08/18 04:35:38;;;;;;;5.53;3.63;;;14.20;99.90;;;;;;2070696;28;20260;-83
2023/08/18 04:36:39;;;;;;;5.68;4.20;;;14.10;99.90;;;;;;2059355;28;20226;-83
2023/08/18 04:37:40;;;;;;;5.73;4.30;;;14.10;99.90;;;;;;2070986;28;20260;-83
2023/08/18 04:38:40;;;;;;;5.50;4.23;;;14.10;99.90;;;;;;2076257;28;20318;-83
2023/08/18 04:39:41;;;;;;;5.17;4.67;;;14.00;99.90;;;;;;2075703;28;20252;-82
2023/08/18 04:40:42;;;;;;;7.70;4.13;;;14.00;99.90;;;;;;2063908;28;20296;-83
2023/08/18 04:41:43;;;;;;;6.10;4.40;;;14.00;99.90;;;;;;2056143;28;20736;-84
2023/08/18 04:42:44;;;;;;;7.30;4.13;;;14.00;99.90;;;;;;2055047;28;20241;-83
2023/08/18 04:43:44;;;;;;;4.77;4.27;;;14.00;99.90;;;;;;2063790;28;20248;-83
2023/08/18 04:44:45;;;;;;;5.57;4.50;;;14.00;99.90;;;;;;2072681;28;20221;-84
2023/08/18 04:45:46;;;;;;;6.47;4.47;;;14.00;99.90;;;;;;2056418;28;20356;-82
2023/08/18 04:46:46;;;;;;;4.40;3.87;;;14.00;99.90;;;;;;2068195;28;20265;-84
2023/08/18 04:47:47;;;;;;;8.30;4.40;;;14.10;99.90;;;;;;2072191;28;20273;-83
2023/08/18 04:48:48;;;;;;;9.50;4.37;;;14.10;99.90;;;;;;2067014;28;20314;-85
2023/08/18 04:49:48;;;;;;;10.97;5.40;;;14.10;99.90;;;;;;2076040;28;20462;-83
2023/08/18 04:50:50;;;;;;;4.33;3.93;;;14.20;99.90;;;;;;2076272;28;20232;-83
2023/08/18 04:51:50;;;;;;;6.30;4.40;;;14.20;99.90;;;;;;2063734;28;20223;-83
2023/08/18 04:52:51;;;;;;;4.77;3.80;;;14.20;99.90;;;;;;2053726;28;20231;-82
2023/08/18 04:53:52;;;;;;;5.17;4.30;;;14.30;99.90;;;;;;2061687;28;20693;-84
2023/08/18 04:54:52;;;;;;;6.37;3.90;;;14.20;99.90;;;;;;2062079;28;20227;-81
2023/08/18 04:55:53;;;;;;;5.23;4.13;;;14.20;99.90;;;;;;2066604;28;20241;-83
2023/08/18 04:56:59;;;;;;;5.03;4.20;;;14.30;99.90;;;;;;2070907;28;20232;-83
2023/08/18 04:57:59;;;;;;;5.43;3.75;;;14.20;99.90;;;;;;2064566;28;20229;-83
2023/08/18 04:59:00;;;;;;;4.47;3.77;;;14.30;99.90;;;;;;2054546;28;20286;-83
2023/08/18 05:00:01;;;;;;;6.17;4.13;;;14.30;99.90;;;;;;2056522;28;20626;-83
2023/08/18 05:01:01;;;;;;;5.30;3.60;;;14.20;99.90;;;;;;2064661;28;20195;-83
2023/08/18 05:02:02;;;;;;;4.90;3.33;;;14.20;99.90;;;;;;2064523;28;20663;-83
2023/08/18 05:03:03;;;;;;;9.63;3.93;;;14.20;99.90;;;;;;2073412;28;20181;-84
2023/08/18 05:04:04;;;;;;;5.35;3.80;;;14.10;99.90;;;;;;2073205;28;20188;-83
2023/08/18 05:05:05;;;;;;;4.30;3.20;;;14.10;99.90;;;;;;2070606;28;20189;-83
2023/08/18 05:06:12;;;;;;;5.05;3.55;;;14.10;99.90;;;;;;2065733;28;20275;-84
2023/08/18 05:07:13;;;;;;;4.20;3.80;;;14.10;99.90;;;;;;2072128;28;20181;-84
2023/08/18 05:08:14;;;;;;;6.00;3.57;;;14.10;99.90;;;;;;2063159;28;20258;-84
2023/08/18 05:09:15;;;;;;;4.27;3.67;;;14.10;99.90;;;;;;2062444;28;20279;-84
2023/08/18 05:10:16;;;;;;;4.55;3.60;;;14.10;99.90;;;;;;2066064;28;20186;-83
2023/08/18 05:11:17;;;;;;;3.57;3.20;;;14.20;99.90;;;;;;2062353;28;20345;-84
2023/08/18 05:12:18;;;;;;;6.33;3.87;;;14.20;99.90;;;;;;2062329;28;20187;-82
2023/08/18 05:13:18;;;;;;;4.10;3.70;;;14.20;99.90;;;;;;2062657;28;20194;-84
2023/08/18 05:14:19;;;;;;;4.97;4.47;;;14.30;99.90;;;;;;2064878;28;20202;-83
2023/08/18 05:15:21;;;;;;;4.90;4.13;;;14.20;99.90;;;;;;2058623;28;20214;-83
2023/08/18 05:16:21;;;;;;;4.50;3.60;;;14.20;99.90;;;;;;2065907;28;20325;-84
2023/08/18 05:17:22;;;;;;;3.97;3.57;;;14.20;99.90;;;;;;2074183;28;20562;-83
2023/08/18 05:18:23;;;;;;;3.77;3.40;;;14.20;99.90;;;;;;2073664;28;20977;-84
2023/08/18 05:19:23;;;;;;;4.60;4.17;;;14.30;99.90;;;;;;2066825;28;20293;-82
2023/08/18 05:20:24;;;;;;;4.07;3.67;;;14.20;99.90;;;;;;2067226;28;20234;-84